Time;durP1;ratioP1;P1;durP2;ratioP2;P2;SDS_P1;SDS_P2;PMS_P1;PMS_P2;Temp;Humidity;BMP_temperature;BMP_pressure;BME280_temperature;BME280_humidity;BME280_pressure;Samples;Min_cycle;Max_cycle;Signal;HPM_P1;HPM_P2
2021/03/01 00:00:11;;;;;;;42.93;26.40;;;3.60;99.90;;;;;;5030652;28;20231;-62
2021/03/01 00:02:37;;;;;;;38.40;26.23;;;3.60;99.90;;;;;;5025738;28;20239;-65
2021/03/01 00:05:05;;;;;;;42.50;28.53;;;3.50;99.90;;;;;;5030216;28;20200;-62
2021/03/01 00:07:32;;;;;;;41.47;27.60;;;3.60;99.90;;;;;;5030513;28;20199;-62
2021/03/01 00:09:59;;;;;;;44.93;28.37;;;3.70;99.90;;;;;;5030709;28;20268;-63
2021/03/01 00:12:25;;;;;;;43.60;27.93;;;3.70;99.90;;;;;;5028913;28;20205;-62
2021/03/01 00:14:52;;;;;;;45.33;28.13;;;3.70;99.90;;;;;;5030413;28;20197;-64
2021/03/01 00:17:18;;;;;;;44.03;28.30;;;3.70;99.90;;;;;;5030910;28;20204;-62
2021/03/01 00:19:45;;;;;;;46.57;28.97;;;3.70;99.90;;;;;;5030436;28;20196;-63
2021/03/01 00:22:11;;;;;;;47.47;30.70;;;3.70;99.90;;;;;;5030078;28;20215;-63
2021/03/01 00:24:38;;;;;;;44.67;27.83;;;3.60;99.90;;;;;;5031537;28;20238;-62
2021/03/01 00:27:05;;;;;;;44.27;28.27;;;3.70;99.90;;;;;;5030045;28;20235;-62
2021/03/01 00:29:32;;;;;;;45.27;30.03;;;3.70;99.90;;;;;;5027737;28;20771;-62
2021/03/01 00:31:58;;;;;;;42.97;27.80;;;3.60;99.90;;;;;;5029857;28;20212;-64
2021/03/01 00:34:25;;;;;;;46.47;29.37;;;3.60;99.90;;;;;;5030698;28;20728;-62
2021/03/01 00:36:52;;;;;;;49.83;29.33;;;3.60;99.90;;;;;;5030846;28;20196;-63
2021/03/01 00:39:18;;;;;;;49.17;29.97;;;3.60;99.90;;;;;;5028510;28;20200;-63
2021/03/01 00:41:45;;;;;;;47.33;30.83;;;3.60;99.90;;;;;;5028177;28;21020;-63
2021/03/01 00:44:12;;;;;;;48.93;30.93;;;3.60;99.90;;;;;;5029676;28;20203;-63
2021/03/01 00:46:38;;;;;;;47.70;30.13;;;3.60;99.90;;;;;;5029597;28;20208;-63
2021/03/01 00:49:05;;;;;;;48.20;31.47;;;3.70;99.90;;;;;;5029569;28;20298;-62
2021/03/01 00:51:32;;;;;;;50.23;31.90;;;3.60;99.90;;;;;;5026750;28;20204;-64
2021/03/01 00:53:58;;;;;;;47.53;30.87;;;3.60;99.90;;;;;;5026677;28;20563;-63
2021/03/01 00:56:25;;;;;;;51.53;31.57;;;3.60;99.90;;;;;;5028255;28;20594;-62
2021/03/01 00:58:51;;;;;;;53.27;31.40;;;3.50;99.90;;;;;;5029837;28;20192;-62
2021/03/01 01:01:18;;;;;;;52.03;30.87;;;3.50;99.90;;;;;;5029833;28;20293;-62
2021/03/01 01:03:45;;;;;;;53.63;32.30;;;3.50;99.90;;;;;;5030422;28;20207;-62
2021/03/01 01:06:11;;;;;;;51.03;33.40;;;3.40;99.90;;;;;;5030704;28;20197;-63
2021/03/01 01:08:38;;;;;;;55.93;33.13;;;3.40;99.90;;;;;;5027193;28;20196;-64
2021/03/01 01:11:04;;;;;;;52.03;32.20;;;3.40;99.90;;;;;;5028614;28;20204;-62
2021/03/01 01:13:31;;;;;;;53.30;30.93;;;3.30;99.90;;;;;;5029327;28;20200;-64
2021/03/01 01:15:58;;;;;;;52.67;31.60;;;3.20;99.90;;;;;;5029674;28;20246;-63
2021/03/01 01:18:26;;;;;;;49.93;30.73;;;3.10;99.90;;;;;;5030338;28;20209;-63
2021/03/01 01:20:53;;;;;;;52.77;31.57;;;3.10;99.90;;;;;;5029685;28;20552;-63
2021/03/01 01:23:19;;;;;;;51.77;32.20;;;3.00;99.90;;;;;;5029440;28;20200;-64
2021/03/01 01:25:46;;;;;;;49.20;30.97;;;3.00;99.90;;;;;;5027179;28;20405;-63
2021/03/01 01:28:12;;;;;;;54.90;32.23;;;3.00;99.90;;;;;;5028808;28;20546;-63
2021/03/01 01:30:39;;;;;;;53.20;33.00;;;3.00;99.90;;;;;;5029485;28;20232;-63
2021/03/01 01:33:06;;;;;;;55.37;33.83;;;3.00;99.90;;;;;;5028248;28;20247;-63
2021/03/01 01:35:33;;;;;;;56.27;33.57;;;3.00;99.90;;;;;;5029567;28;20200;-62
2021/03/01 01:38:00;;;;;;;58.10;33.50;;;3.10;99.90;;;;;;5029594;28;20603;-62
2021/03/01 01:40:27;;;;;;;53.20;31.67;;;3.00;99.90;;;;;;5028705;28;20204;-65
2021/03/01 01:42:54;;;;;;;55.27;32.87;;;3.10;99.90;;;;;;5026719;28;20204;-63
2021/03/01 01:45:23;;;;;;;56.77;34.53;;;3.00;99.90;;;;;;5028652;28;20200;-63
2021/03/01 01:47:51;;;;;;;57.23;34.87;;;3.00;99.90;;;;;;5026579;28;20231;-63
2021/03/01 01:50:19;;;;;;;58.90;34.77;;;3.10;99.90;;;;;;5027762;28;20233;-62
2021/03/01 01:52:48;;;;;;;56.63;33.93;;;3.00;99.90;;;;;;5027060;28;20250;-63
2021/03/01 01:55:15;;;;;;;62.87;35.97;;;3.00;99.90;;;;;;5025358;28;20309;-63
2021/03/01 01:57:43;;;;;;;65.37;35.70;;;3.10;99.90;;;;;;5023203;28;20236;-62
2021/03/01 02:00:20;;;;;;;61.73;35.00;;;3.20;99.90;;;;;;5028454;28;20201;-64
2021/03/01 02:02:55;;;;;;;58.53;34.27;;;3.20;99.90;;;;;;5026268;28;20223;-62
2021/03/01 02:05:23;;;;;;;61.00;37.03;;;3.20;99.90;;;;;;5026287;28;20653;-62
2021/03/01 02:07:55;;;;;;;57.87;35.40;;;3.20;99.90;;;;;;5027132;28;20665;-63
2021/03/01 02:10:31;;;;;;;63.63;36.53;;;3.30;99.90;;;;;;5027100;28;20668;-63
2021/03/01 02:13:08;;;;;;;64.30;36.00;;;3.20;99.90;;;;;;5024610;28;20195;-63
2021/03/01 02:15:42;;;;;;;61.10;36.30;;;3.30;99.90;;;;;;5025011;28;20671;-64
2021/03/01 02:18:09;;;;;;;58.80;35.90;;;3.20;99.90;;;;;;5025998;28;20228;-63
2021/03/01 02:20:41;;;;;;;65.77;36.67;;;3.20;99.90;;;;;;5027186;28;20200;-63
2021/03/01 02:23:10;;;;;;;60.57;36.07;;;3.20;99.90;;;;;;5027655;28;20196;-63
2021/03/01 02:25:38;;;;;;;64.17;36.67;;;3.20;99.90;;;;;;5025846;28;20196;-63
2021/03/01 02:28:09;;;;;;;65.83;37.17;;;3.20;99.90;;;;;;5027305;28;20250;-63
2021/03/01 02:30:39;;;;;;;60.90;35.57;;;3.20;99.90;;;;;;5028634;28;20318;-63
2021/03/01 02:33:13;;;;;;;62.57;36.43;;;3.00;99.90;;;;;;5027439;28;20231;-62
2021/03/01 02:35:52;;;;;;;60.00;35.50;;;3.00;99.90;;;;;;5027674;28;20192;-64
2021/03/01 02:38:26;;;;;;;66.77;35.77;;;3.10;99.90;;;;;;5025061;28;20222;-62
2021/03/01 02:40:55;;;;;;;60.60;35.97;;;3.20;99.90;;;;;;5027185;28;20270;-63
2021/03/01 02:43:22;;;;;;;62.43;36.43;;;3.20;99.90;;;;;;5025978;28;20234;-61
2021/03/01 02:45:49;;;;;;;71.90;37.87;;;3.30;99.90;;;;;;5026921;28;20231;-64
2021/03/01 02:48:17;;;;;;;63.33;34.77;;;3.30;99.90;;;;;;5027674;28;20553;-63
2021/03/01 02:50:44;;;;;;;61.43;37.27;;;3.20;99.90;;;;;;5026332;28;20270;-64
2021/03/01 02:53:11;;;;;;;66.57;37.70;;;3.30;99.90;;;;;;5026392;28;20200;-62
2021/03/01 02:55:43;;;;;;;66.20;38.60;;;3.30;99.90;;;;;;5027581;28;20196;-64
2021/03/01 02:58:10;;;;;;;70.17;37.17;;;3.30;99.90;;;;;;5027614;28;20232;-62
2021/03/01 03:00:37;;;;;;;69.17;38.47;;;3.30;99.90;;;;;;5027656;28;20208;-62
2021/03/01 03:03:05;;;;;;;68.97;37.60;;;3.30;99.90;;;;;;5026793;28;20200;-64
2021/03/01 03:05:32;;;;;;;69.93;38.33;;;3.30;99.90;;;;;;5027345;28;20196;-61
2021/03/01 03:07:59;;;;;;;63.17;37.77;;;3.30;99.90;;;;;;5028159;28;20193;-62
2021/03/01 03:10:26;;;;;;;68.03;37.83;;;3.30;99.90;;;;;;5027161;28;20696;-62
2021/03/01 03:12:55;;;;;;;68.13;39.63;;;3.30;99.90;;;;;;5026315;28;20200;-63
2021/03/01 03:15:23;;;;;;;67.03;39.47;;;3.30;99.90;;;;;;5028430;28;20258;-62
2021/03/01 03:17:51;;;;;;;68.63;38.57;;;3.30;99.90;;;;;;5027938;28;20197;-63
2021/03/01 03:20:18;;;;;;;65.93;37.73;;;3.40;99.90;;;;;;5031566;28;20649;-66
2021/03/01 03:22:45;;;;;;;72.13;37.53;;;3.30;99.90;;;;;;5030186;28;20196;-65
2021/03/01 03:25:12;;;;;;;67.10;39.57;;;3.20;99.90;;;;;;5030321;28;20196;-66
2021/03/01 03:27:39;;;;;;;66.73;39.20;;;3.20;99.90;;;;;;5032047;28;20704;-64
2021/03/01 03:30:10;;;;;;;70.30;38.67;;;3.20;99.90;;;;;;5031753;28;20701;-64
2021/03/01 03:32:37;;;;;;;69.73;40.03;;;3.20;99.90;;;;;;5030778;28;20198;-66
2021/03/01 03:35:05;;;;;;;67.87;39.40;;;3.10;99.90;;;;;;5031826;28;20661;-65
2021/03/01 03:37:36;;;;;;;73.13;39.83;;;3.10;99.90;;;;;;5031813;28;20685;-65
2021/03/01 03:40:04;;;;;;;73.87;40.33;;;3.10;99.90;;;;;;5031061;28;20227;-64
2021/03/01 03:42:33;;;;;;;70.03;40.70;;;3.10;99.90;;;;;;5030263;28;20201;-65
2021/03/01 03:45:01;;;;;;;76.30;39.13;;;3.10;99.90;;;;;;5030717;28;20208;-65
2021/03/01 03:47:30;;;;;;;80.57;42.80;;;3.10;99.90;;;;;;5032064;28;20193;-64
2021/03/01 03:49:59;;;;;;;78.00;41.00;;;3.20;99.90;;;;;;5033186;28;20231;-64
2021/03/01 03:52:29;;;;;;;81.77;43.63;;;3.20;99.90;;;;;;5036897;28;20211;-65
2021/03/01 03:54:58;;;;;;;91.70;46.73;;;3.30;99.90;;;;;;5029158;28;20188;-62
2021/03/01 03:57:28;;;;;;;90.60;47.97;;;3.40;99.90;;;;;;5029777;28;20772;-62
2021/03/01 03:59:56;;;;;;;99.33;47.87;;;3.50;99.90;;;;;;5031781;28;20661;-62
2021/03/01 04:02:23;;;;;;;103.10;51.20;;;3.60;99.90;;;;;;5031592;28;20207;-64
2021/03/01 04:04:52;;;;;;;113.00;53.23;;;3.60;99.90;;;;;;5030674;28;20212;-63
2021/03/01 04:07:19;;;;;;;121.03;54.00;;;3.70;99.90;;;;;;5028448;28;20235;-64
2021/03/01 04:09:46;;;;;;;115.70;53.10;;;3.70;99.90;;;;;;5025587;28;20223;-64
2021/03/01 04:12:15;;;;;;;126.00;54.23;;;3.70;99.90;;;;;;5026411;28;20196;-65
2021/03/01 04:14:45;;;;;;;124.57;55.47;;;3.70;99.90;;;;;;5022239;28;20197;-62
2021/03/01 04:17:15;;;;;;;139.17;56.67;;;3.70;99.90;;;;;;5026008;28;20226;-63
2021/03/01 04:19:43;;;;;;;144.13;59.03;;;3.80;99.90;;;;;;5030576;28;20642;-61
2021/03/01 04:22:12;;;;;;;130.63;56.57;;;3.70;99.90;;;;;;5034041;28;20196;-62
2021/03/01 04:24:41;;;;;;;157.37;61.87;;;3.70;99.90;;;;;;5044679;28;20196;-62
2021/03/01 04:27:09;;;;;;;151.03;58.20;;;3.70;99.90;;;;;;5048375;28;20201;-63
2021/03/01 04:29:37;;;;;;;159.90;61.33;;;3.80;99.90;;;;;;5034233;28;20219;-61
2021/03/01 04:32:03;;;;;;;157.10;60.47;;;3.70;99.90;;;;;;5034933;28;20232;-64
2021/03/01 04:34:30;;;;;;;154.40;61.33;;;3.70;99.90;;;;;;5033627;28;20200;-64
2021/03/01 04:36:57;;;;;;;171.00;63.80;;;3.70;99.90;;;;;;5033088;28;20632;-63
2021/03/01 04:39:25;;;;;;;161.30;58.30;;;3.70;99.90;;;;;;5029333;28;20598;-63
2021/03/01 04:41:53;;;;;;;180.80;61.23;;;3.70;99.90;;;;;;5027508;28;20228;-62
2021/03/01 04:44:20;;;;;;;163.07;62.70;;;3.70;99.90;;;;;;5027690;28;20232;-65
2021/03/01 04:46:49;;;;;;;166.87;63.27;;;3.70;99.90;;;;;;5030925;28;20266;-63
2021/03/01 04:49:16;;;;;;;179.57;62.63;;;3.70;99.90;;;;;;5028115;28;20224;-62
2021/03/01 04:51:43;;;;;;;175.57;61.27;;;3.70;99.90;;;;;;5026345;28;22249;-64
2021/03/01 04:54:10;;;;;;;166.03;60.50;;;3.70;99.90;;;;;;5028164;28;20204;-64
2021/03/01 04:56:43;;;;;;;191.10;63.37;;;3.60;99.90;;;;;;5022331;28;20283;-64
2021/03/01 04:59:12;;;;;;;163.27;61.70;;;3.60;99.90;;;;;;5024842;28;20676;-64
2021/03/01 05:01:39;;;;;;;199.57;62.20;;;3.60;99.90;;;;;;5030976;28;20193;-64
2021/03/01 05:04:06;;;;;;;183.97;60.07;;;3.60;99.90;;;;;;5031289;28;20296;-65
2021/03/01 05:06:33;;;;;;;179.87;57.60;;;3.60;99.90;;;;;;5034173;28;20612;-63
2021/03/01 05:09:01;;;;;;;192.47;57.47;;;3.60;99.90;;;;;;5032718;28;20258;-64
2021/03/01 05:11:32;;;;;;;160.20;54.00;;;3.60;99.90;;;;;;5032672;28;20208;-63
2021/03/01 05:14:00;;;;;;;189.50;56.63;;;3.50;99.90;;;;;;5028486;28;20291;-64
2021/03/01 05:16:26;;;;;;;183.80;57.00;;;3.50;99.90;;;;;;5034163;28;20536;-64
2021/03/01 05:18:53;;;;;;;174.27;54.60;;;3.50;99.90;;;;;;5034223;28;20224;-62
2021/03/01 05:21:19;;;;;;;175.73;53.13;;;3.50;99.90;;;;;;5030521;28;20592;-63
2021/03/01 05:23:46;;;;;;;169.37;55.17;;;3.50;99.90;;;;;;5027338;28;20199;-64
2021/03/01 05:26:13;;;;;;;154.77;53.87;;;3.50;99.90;;;;;;5025462;28;20208;-63
2021/03/01 05:28:40;;;;;;;200.83;58.53;;;3.50;99.90;;;;;;5026540;28;20200;-63
2021/03/01 05:31:07;;;;;;;182.07;56.50;;;3.50;99.90;;;;;;5024728;28;20247;-63
2021/03/01 05:33:34;;;;;;;186.27;55.53;;;3.50;99.90;;;;;;5028090;28;20203;-62
2021/03/01 05:36:01;;;;;;;209.03;55.70;;;3.60;99.90;;;;;;5026728;28;20212;-66
2021/03/01 05:38:28;;;;;;;245.00;57.43;;;3.50;99.90;;;;;;5027938;28;20254;-63
2021/03/01 05:40:55;;;;;;;193.10;50.53;;;3.50;99.90;;;;;;5028138;28;20205;-61
2021/03/01 05:43:25;;;;;;;198.03;52.60;;;3.60;99.90;;;;;;5027961;28;20250;-64
2021/03/01 05:45:52;;;;;;;173.87;49.20;;;3.50;99.90;;;;;;5028499;28;20200;-63
2021/03/01 05:48:22;;;;;;;197.00;51.27;;;3.50;99.90;;;;;;5027682;28;20591;-64
2021/03/01 05:50:54;;;;;;;199.13;55.00;;;3.50;99.90;;;;;;5027441;28;20561;-64
2021/03/01 05:53:25;;;;;;;183.87;50.30;;;3.50;99.90;;;;;;5025096;28;20192;-63
2021/03/01 05:55:52;;;;;;;188.53;50.57;;;3.50;99.90;;;;;;5025958;28;20197;-64
2021/03/01 05:58:20;;;;;;;208.77;52.03;;;3.50;99.90;;;;;;5027854;28;20211;-63
2021/03/01 06:00:48;;;;;;;200.60;51.87;;;3.50;99.90;;;;;;5027361;28;20221;-63
2021/03/01 06:03:14;;;;;;;200.63;51.30;;;3.60;99.90;;;;;;5028293;28;20654;-62
2021/03/01 06:05:42;;;;;;;194.07;50.43;;;3.50;99.90;;;;;;5026930;28;20215;-62
2021/03/01 06:08:10;;;;;;;201.57;51.80;;;3.50;99.90;;;;;;5030419;28;20250;-66
2021/03/01 06:10:37;;;;;;;201.97;49.50;;;3.50;99.90;;;;;;5024715;28;20312;-62
2021/03/01 06:13:03;;;;;;;215.37;52.50;;;3.50;99.90;;;;;;5027468;28;20196;-63
2021/03/01 06:15:30;;;;;;;235.23;54.07;;;3.50;99.90;;;;;;5023942;28;20266;-63
2021/03/01 06:18:08;;;;;;;206.37;53.77;;;3.50;99.90;;;;;;5028544;28;20319;-63
2021/03/01 06:20:36;;;;;;;224.07;53.30;;;3.50;99.90;;;;;;5028533;28;20333;-64
2021/03/01 06:23:04;;;;;;;246.13;54.33;;;3.60;99.90;;;;;;5026665;28;21013;-65
2021/03/01 06:25:31;;;;;;;243.77;56.33;;;3.60;99.90;;;;;;5028135;28;20668;-65
2021/03/01 06:27:59;;;;;;;261.00;57.23;;;3.60;99.90;;;;;;5025125;28;20753;-64
2021/03/01 06:30:27;;;;;;;236.60;54.20;;;3.60;99.90;;;;;;5026489;28;20228;-65
2021/03/01 06:33:08;;;;;;;247.27;57.73;;;3.60;99.90;;;;;;5028578;28;20192;-63
2021/03/01 06:35:36;;;;;;;263.57;57.47;;;3.70;99.90;;;;;;5028007;28;20199;-63
2021/03/01 06:38:35;;;;;;;259.00;55.30;;;3.70;99.90;;;;;;5028079;28;20204;-63
2021/03/01 06:41:16;;;;;;;285.50;55.90;;;3.70;99.90;;;;;;5023403;28;20280;-65
2021/03/01 06:43:54;;;;;;;297.27;55.80;;;3.60;99.90;;;;;;5021775;28;20201;-63
2021/03/01 06:46:22;;;;;;;301.03;57.13;;;3.60;99.90;;;;;;5026973;28;20193;-63
2021/03/01 06:48:49;;;;;;;268.47;53.87;;;3.60;99.90;;;;;;5023221;28;20596;-62
2021/03/01 06:51:15;;;;;;;205.93;50.53;;;3.70;99.90;;;;;;5027590;28;20223;-63
2021/03/01 06:53:43;;;;;;;220.37;51.97;;;3.70;99.90;;;;;;5026739;28;20256;-65
2021/03/01 06:56:13;;;;;;;232.40;49.87;;;3.60;99.90;;;;;;5027775;28;20290;-66
2021/03/01 06:58:41;;;;;;;245.23;54.90;;;3.60;99.90;;;;;;5027588;28;20208;-66
2021/03/01 07:01:10;;;;;;;265.43;53.20;;;3.60;99.90;;;;;;5028610;28;20661;-66
2021/03/01 07:03:38;;;;;;;251.90;54.50;;;3.60;99.90;;;;;;5027021;28;20213;-65
2021/03/01 07:06:06;;;;;;;223.97;50.33;;;3.60;99.90;;;;;;5027187;28;20204;-61
2021/03/01 07:08:45;;;;;;;237.63;50.50;;;3.60;99.90;;;;;;5026338;28;20547;-63
2021/03/01 07:11:27;;;;;;;245.83;52.33;;;3.60;99.90;;;;;;5029949;28;20260;-63
2021/03/01 07:13:54;;;;;;;213.77;52.67;;;3.60;99.90;;;;;;5031667;28;20196;-63
2021/03/01 07:16:21;;;;;;;222.60;52.57;;;3.60;99.90;;;;;;5032343;28;20192;-65
2021/03/01 07:18:50;;;;;;;238.63;53.07;;;3.60;99.90;;;;;;5032479;28;20203;-63
2021/03/01 07:21:17;;;;;;;248.10;52.83;;;3.60;99.90;;;;;;5032425;28;20200;-62
2021/03/01 07:23:45;;;;;;;213.37;52.23;;;3.70;99.90;;;;;;5029826;28;20204;-64
2021/03/01 07:26:15;;;;;;;195.73;47.13;;;3.70;99.90;;;;;;5031834;28;20279;-63
2021/03/01 07:28:43;;;;;;;221.73;49.93;;;3.70;99.90;;;;;;5032375;28;20192;-63
2021/03/01 07:31:11;;;;;;;202.17;49.53;;;3.70;99.90;;;;;;5032357;28;20200;-62
2021/03/01 07:33:38;;;;;;;206.43;50.03;;;3.70;99.90;;;;;;5032125;28;20201;-62
2021/03/01 07:36:07;;;;;;;230.97;51.20;;;3.70;99.90;;;;;;5027916;28;20246;-64
2021/03/01 07:38:34;;;;;;;217.53;46.73;;;3.70;99.90;;;;;;5026470;28;20223;-72
2021/03/01 07:41:03;;;;;;;197.17;45.93;;;3.70;99.90;;;;;;5025753;28;20219;-67
2021/03/01 07:43:31;;;;;;;237.03;51.50;;;3.70;99.90;;;;;;5028014;28;20200;-64
2021/03/01 07:45:58;;;;;;;236.17;54.67;;;3.70;99.90;;;;;;5026840;28;20561;-66
2021/03/01 07:48:34;;;;;;;209.07;50.73;;;3.70;99.90;;;;;;5027721;28;20249;-62
2021/03/01 07:51:01;;;;;;;252.43;54.67;;;3.70;99.90;;;;;;5025510;28;20208;-65
2021/03/01 07:53:51;;;;;;;259.87;52.77;;;3.70;99.90;;;;;;5029733;28;20204;-62
2021/03/01 07:56:50;;;;;;;266.07;56.20;;;3.80;99.90;;;;;;5030942;28;20262;-66
2021/03/01 07:59:30;;;;;;;222.40;54.23;;;3.90;99.90;;;;;;5035447;28;20189;-64
2021/03/01 08:02:24;;;;;;;222.27;52.57;;;3.90;99.90;;;;;;5035643;28;20196;-64
2021/03/01 08:04:52;;;;;;;211.23;53.30;;;4.00;99.90;;;;;;5001755;28;20200;-63
2021/03/01 08:07:35;;;;;;;211.07;53.80;;;4.00;99.90;;;;;;5028673;28;20196;-64
2021/03/01 08:10:03;;;;;;;202.27;54.13;;;4.10;99.90;;;;;;5024868;28;20555;-62
2021/03/01 08:12:59;;;;;;;224.13;54.77;;;4.20;99.90;;;;;;5035595;28;20196;-64
2021/03/01 08:15:29;;;;;;;209.33;53.17;;;4.10;99.90;;;;;;5029066;28;20239;-64
2021/03/01 08:17:56;;;;;;;208.40;55.07;;;4.10;99.90;;;;;;5024285;28;20228;-63
2021/03/01 08:20:41;;;;;;;210.43;53.53;;;4.20;99.90;;;;;;5025442;28;20267;-64
2021/03/01 08:23:15;;;;;;;228.30;54.30;;;4.20;99.90;;;;;;5022624;28;20232;-62
2021/03/01 08:25:52;;;;;;;195.87;49.40;;;4.20;99.90;;;;;;5029932;28;20196;-64
2021/03/01 08:28:58;;;;;;;239.53;54.97;;;4.20;99.90;;;;;;5022938;28;20249;-61
2021/03/01 08:31:40;;;;;;;220.70;53.13;;;4.10;99.90;;;;;;5028073;28;20597;-65
2021/03/01 08:34:29;;;;;;;211.37;52.10;;;4.10;99.90;;;;;;5027619;28;20695;-62
2021/03/01 08:36:57;;;;;;;218.60;53.20;;;4.20;99.90;;;;;;5025949;28;20197;-65
2021/03/01 08:39:59;;;;;;;209.17;52.07;;;4.10;99.90;;;;;;5027942;28;20204;-63
2021/03/01 08:42:45;;;;;;;199.23;50.63;;;4.10;99.90;;;;;;5027285;28;20238;-63
2021/03/01 08:45:12;;;;;;;220.63;54.13;;;4.10;99.90;;;;;;5029675;28;20216;-62
2021/03/01 08:47:49;;;;;;;217.87;54.17;;;4.20;99.90;;;;;;5024804;28;20287;-64
2021/03/01 08:50:20;;;;;;;196.40;50.93;;;4.20;99.90;;;;;;5027022;28;20231;-62
2021/03/01 08:52:48;;;;;;;171.33;48.73;;;4.30;99.90;;;;;;5026354;28;20684;-66
2021/03/01 08:55:16;;;;;;;187.53;49.40;;;4.40;99.90;;;;;;5027035;28;20200;-66
2021/03/01 08:58:04;;;;;;;177.43;50.10;;;4.40;99.90;;;;;;5029417;28;22445;-63
2021/03/01 09:00:32;;;;;;;175.93;48.70;;;4.40;99.90;;;;;;5025829;28;20302;-63
2021/03/01 09:03:25;;;;;;;164.57;47.27;;;4.40;99.90;;;;;;5026722;28;20192;-62
2021/03/01 09:05:53;;;;;;;182.40;47.60;;;4.50;99.90;;;;;;5032058;28;20246;-64
2021/03/01 09:08:25;;;;;;;186.77;49.80;;;4.60;99.90;;;;;;5028949;28;20201;-64
2021/03/01 09:10:51;;;;;;;199.17;49.37;;;4.60;99.90;;;;;;5030761;28;20204;-63
2021/03/01 09:13:19;;;;;;;190.37;47.20;;;4.60;99.90;;;;;;5033247;28;20207;-66
2021/03/01 09:15:46;;;;;;;172.40;45.03;;;4.50;99.90;;;;;;5034086;28;20570;-64
2021/03/01 09:18:13;;;;;;;148.50;42.33;;;4.50;99.90;;;;;;5032882;28;20211;-67
2021/03/01 09:20:46;;;;;;;147.03;42.40;;;4.40;99.90;;;;;;5033942;28;20270;-65
2021/03/01 09:23:13;;;;;;;137.83;40.00;;;4.40;99.90;;;;;;5033703;28;20207;-66
2021/03/01 09:25:40;;;;;;;137.60;40.23;;;4.50;99.90;;;;;;5033647;28;20565;-64
2021/03/01 09:28:07;;;;;;;142.20;39.87;;;4.70;99.90;;;;;;5033056;28;20200;-63
2021/03/01 09:30:34;;;;;;;134.63;41.23;;;4.70;99.90;;;;;;5033499;28;20220;-68
2021/03/01 09:33:03;;;;;;;151.07;41.27;;;4.70;99.90;;;;;;5031746;28;20243;-70
2021/03/01 09:35:32;;;;;;;146.73;44.10;;;4.60;99.90;;;;;;5033703;28;20657;-73
2021/03/01 09:38:01;;;;;;;141.13;41.67;;;4.60;99.90;;;;;;5033018;28;20553;-62
2021/03/01 09:40:28;;;;;;;136.87;41.57;;;4.60;99.90;;;;;;5031285;28;20228;-62
2021/03/01 09:43:01;;;;;;;141.33;41.27;;;4.70;99.90;;;;;;5034006;28;20252;-64
2021/03/01 09:45:31;;;;;;;130.17;39.23;;;4.70;99.90;;;;;;5031529;28;20210;-65
2021/03/01 09:47:58;;;;;;;124.80;37.47;;;4.80;99.90;;;;;;5028753;28;20212;-61
2021/03/01 09:50:24;;;;;;;125.23;37.47;;;4.90;99.90;;;;;;5024242;28;20711;-64
2021/03/01 09:52:51;;;;;;;127.63;38.43;;;5.00;99.90;;;;;;5026964;28;20203;-67
2021/03/01 09:55:21;;;;;;;129.53;38.10;;;5.00;99.90;;;;;;5027998;28;20266;-64
2021/03/01 09:57:47;;;;;;;123.13;39.53;;;5.10;99.90;;;;;;5023064;28;20777;-64
2021/03/01 10:00:21;;;;;;;129.27;40.03;;;5.30;99.90;;;;;;5026971;28;20285;-63
2021/03/01 10:02:58;;;;;;;123.47;38.67;;;5.50;99.90;;;;;;5022987;28;20252;-66
2021/03/01 10:05:26;;;;;;;131.83;37.97;;;5.60;99.90;;;;;;5017238;28;20279;-63
2021/03/01 10:07:58;;;;;;;119.00;36.53;;;5.50;99.90;;;;;;5023075;28;20200;-62
2021/03/01 10:10:33;;;;;;;116.27;36.10;;;5.20;99.90;;;;;;5019056;28;20196;-65
2021/03/01 10:13:00;;;;;;;124.67;37.23;;;5.10;99.90;;;;;;5016143;28;20219;-65
2021/03/01 10:15:27;;;;;;;125.37;38.77;;;5.10;99.90;;;;;;5015968;28;20204;-62
2021/03/01 10:18:05;;;;;;;129.10;39.00;;;5.10;99.90;;;;;;5026554;28;20250;-64
2021/03/01 10:20:31;;;;;;;116.93;38.23;;;5.20;99.90;;;;;;5023171;28;20362;-62
2021/03/01 10:22:59;;;;;;;119.03;38.07;;;5.40;99.90;;;;;;5026504;28;20227;-63
2021/03/01 10:25:34;;;;;;;108.53;37.00;;;5.60;99.90;;;;;;5024314;28;20295;-69
2021/03/01 10:28:01;;;;;;;112.93;38.07;;;5.70;99.90;;;;;;5012840;28;20719;-65
2021/03/01 10:30:27;;;;;;;111.40;37.80;;;5.70;99.90;;;;;;5015874;28;20709;-64
2021/03/01 10:33:04;;;;;;;110.53;37.93;;;5.90;99.90;;;;;;5015712;28;20200;-68
2021/03/01 10:35:31;;;;;;;108.03;37.23;;;6.00;99.90;;;;;;5013120;28;20192;-62
2021/03/01 10:38:04;;;;;;;100.20;35.83;;;5.80;99.90;;;;;;5020113;28;20201;-62
2021/03/01 10:40:32;;;;;;;94.00;35.50;;;5.70;99.90;;;;;;5015481;28;20215;-65
2021/03/01 10:43:08;;;;;;;89.83;33.77;;;5.90;99.90;;;;;;5017880;28;20323;-66
2021/03/01 10:45:42;;;;;;;77.10;30.00;;;6.00;99.90;;;;;;5022291;28;20188;-64
2021/03/01 10:48:09;;;;;;;73.53;30.67;;;6.10;99.90;;;;;;5014899;28;20208;-63
2021/03/01 10:50:36;;;;;;;69.40;29.27;;;6.10;99.90;;;;;;5020547;28;20201;-61
2021/03/01 10:53:02;;;;;;;62.07;28.60;;;6.20;99.90;;;;;;5025137;28;20839;-67
2021/03/01 10:55:29;;;;;;;58.13;28.63;;;6.40;99.90;;;;;;5022629;28;20200;-66
2021/03/01 10:57:56;;;;;;;51.57;25.73;;;6.60;99.90;;;;;;5024734;28;20693;-67
2021/03/01 11:00:23;;;;;;;43.17;24.23;;;6.60;99.90;;;;;;5025736;28;20950;-65
2021/03/01 11:02:50;;;;;;;42.57;23.70;;;6.50;99.90;;;;;;5019566;28;20208;-72
2021/03/01 11:05:18;;;;;;;40.70;23.50;;;6.60;99.90;;;;;;5028691;28;20200;-60
2021/03/01 11:07:44;;;;;;;43.13;23.60;;;6.40;99.90;;;;;;5029877;28;20223;-65
2021/03/01 11:10:11;;;;;;;37.80;22.50;;;6.40;99.90;;;;;;5025294;28;20204;-60
2021/03/01 11:12:37;;;;;;;40.77;21.73;;;6.30;99.90;;;;;;5020214;28;20205;-62
2021/03/01 11:15:06;;;;;;;43.83;24.53;;;6.30;99.90;;;;;;5014696;28;20201;-65
2021/03/01 11:17:33;;;;;;;39.17;22.37;;;6.40;99.90;;;;;;5017879;28;20204;-63
2021/03/01 11:19:59;;;;;;;40.30;21.97;;;6.40;99.90;;;;;;5030640;28;20270;-72
2021/03/01 11:22:26;;;;;;;41.97;23.17;;;6.20;99.90;;;;;;5020873;28;20658;-60
2021/03/01 11:24:52;;;;;;;42.70;23.77;;;6.10;99.90;;;;;;5022487;28;20196;-61
2021/03/01 11:27:19;;;;;;;44.47;22.87;;;6.30;99.90;;;;;;5032390;28;20557;-61
2021/03/01 11:29:45;;;;;;;41.90;23.33;;;6.40;99.90;;;;;;5030160;28;20203;-63
2021/03/01 11:32:13;;;;;;;42.43;23.60;;;6.50;99.90;;;;;;5028847;28;20200;-60
2021/03/01 11:34:39;;;;;;;42.47;22.90;;;6.50;99.90;;;;;;5029653;28;20270;-65
2021/03/01 11:37:05;;;;;;;36.33;21.47;;;6.70;99.90;;;;;;5032320;28;20196;-61
2021/03/01 11:39:32;;;;;;;34.17;21.20;;;6.90;99.90;;;;;;5021571;28;20735;-61
2021/03/01 11:41:58;;;;;;;36.73;21.50;;;7.10;99.90;;;;;;5030217;28;20719;-62
2021/03/01 11:44:25;;;;;;;35.17;21.70;;;7.10;99.90;;;;;;5030514;28;20197;-62
2021/03/01 11:46:51;;;;;;;32.73;20.83;;;7.00;99.90;;;;;;5035309;28;20201;-61
2021/03/01 11:49:18;;;;;;;35.50;21.33;;;6.80;99.90;;;;;;5025127;28;20441;-61
2021/03/01 11:51:45;;;;;;;36.27;21.17;;;6.80;99.90;;;;;;5018624;28;20236;-60
2021/03/01 11:54:11;;;;;;;40.50;22.10;;;6.80;99.90;;;;;;5017445;28;20294;-60
2021/03/01 11:56:38;;;;;;;37.53;22.43;;;6.70;99.90;;;;;;5020860;28;20291;-62
2021/03/01 11:59:04;;;;;;;39.27;23.20;;;6.70;99.90;;;;;;5031590;28;20246;-60
2021/03/01 12:01:31;;;;;;;35.83;22.63;;;6.60;99.90;;;;;;5017941;28;20255;-60
2021/03/01 12:03:58;;;;;;;34.77;22.20;;;6.70;99.90;;;;;;5015916;28;20204;-60
2021/03/01 12:06:25;;;;;;;32.73;20.80;;;6.80;99.90;;;;;;5016702;28;20224;-63
2021/03/01 12:08:51;;;;;;;36.00;21.63;;;7.00;99.90;;;;;;5016200;28;20654;-63
2021/03/01 12:11:18;;;;;;;39.77;21.90;;;7.40;99.90;;;;;;5018885;28;20204;-62
2021/03/01 12:13:44;;;;;;;36.83;22.70;;;7.60;99.90;;;;;;5018084;28;20198;-60
2021/03/01 12:16:11;;;;;;;37.73;22.70;;;7.90;99.90;;;;;;5020748;28;22220;-60
2021/03/01 12:18:37;;;;;;;35.47;21.80;;;8.10;99.90;;;;;;5017635;28;20196;-63
2021/03/01 12:21:03;;;;;;;38.70;23.43;;;8.10;99.90;;;;;;5018647;28;20728;-61
2021/03/01 12:23:31;;;;;;;42.90;24.33;;;7.90;99.90;;;;;;5016696;28;20205;-65
2021/03/01 12:25:57;;;;;;;39.03;23.23;;;8.00;99.90;;;;;;5019336;28;20733;-64
2021/03/01 12:28:24;;;;;;;40.13;23.50;;;8.20;99.90;;;;;;5019624;28;20204;-62
2021/03/01 12:30:50;;;;;;;38.70;24.50;;;8.20;99.90;;;;;;5020841;28;20196;-60
2021/03/01 12:33:17;;;;;;;38.53;22.63;;;8.50;99.90;;;;;;5019652;28;20196;-62
2021/03/01 12:35:43;;;;;;;35.97;22.83;;;9.10;99.90;;;;;;5020028;28;20192;-60
2021/03/01 12:38:10;;;;;;;40.10;26.17;;;9.60;99.90;;;;;;5016389;28;20208;-60
2021/03/01 12:40:37;;;;;;;39.07;24.00;;;9.60;99.90;;;;;;5017644;28;20231;-60